createdAt,value
2023-02-06T00:03:59.970Z,14.50
2023-02-06T00:08:52.192Z,14.60
2023-02-06T00:13:45.242Z,10.87
2023-02-06T00:18:37.722Z,19.03
2023-02-06T00:23:30.701Z,18.67
2023-02-06T00:28:22.850Z,17.50
2023-02-06T00:33:15.297Z,18.40
2023-02-06T00:38:08.490Z,16.93
2023-02-06T00:43:01.544Z,14.93
2023-02-06T00:47:53.631Z,19.83
2023-02-06T00:52:49.162Z,17.67
2023-02-06T00:57:48.109Z,13.43
2023-02-06T01:02:40.971Z,12.53
2023-02-06T01:07:33.511Z,13.50
2023-02-06T01:12:25.697Z,15.83
2023-02-06T01:17:18.291Z,15.00
2023-02-06T01:22:12.653Z,12.57
2023-02-06T01:27:05.113Z,14.23
2023-02-06T01:31:57.132Z,13.83
2023-02-06T01:36:49.206Z,14.20
2023-02-06T01:41:41.336Z,12.40
2023-02-06T01:46:33.924Z,16.43
2023-02-06T01:51:30.402Z,14.73
2023-02-06T01:56:24.154Z,12.10
2023-02-06T02:01:17.864Z,12.13
2023-02-06T02:07:49.378Z,13.93
2023-02-06T02:12:43.338Z,13.50
2023-02-06T02:18:13.782Z,12.20
2023-02-06T02:23:44.324Z,11.33
2023-02-06T02:28:56.333Z,12.63
2023-02-06T02:33:56.369Z,9.93
2023-02-06T02:39:15.996Z,10.40
2023-02-06T02:44:29.933Z,10.87
2023-02-06T02:49:26.760Z,13.90
2023-02-06T02:54:19.762Z,13.17
2023-02-06T02:59:41.395Z,10.00
2023-02-06T03:04:50.299Z,19.73
2023-02-06T03:09:50.493Z,16.90
2023-02-06T03:14:51.450Z,18.33
2023-02-06T03:19:52.903Z,50.23
2023-02-06T03:24:47.184Z,17.80
2023-02-06T03:29:41.738Z,15.07
2023-02-06T03:34:52.126Z,13.97
2023-02-06T03:39:44.456Z,10.30
2023-02-06T03:44:41.227Z,11.93
2023-02-06T03:49:35.995Z,12.03
2023-02-06T03:54:29.416Z,11.73
2023-02-06T03:59:21.877Z,15.83
2023-02-06T04:04:18.886Z,12.43
2023-02-06T04:09:11.345Z,14.23
2023-02-06T04:14:03.345Z,13.30
2023-02-06T04:18:55.336Z,16.33
2023-02-06T04:23:47.408Z,11.80
2023-02-06T04:28:39.372Z,16.03
2023-02-06T04:33:31.330Z,10.57
2023-02-06T04:38:23.439Z,15.70
2023-02-06T04:43:15.418Z,14.80
2023-02-06T04:48:07.464Z,17.00
2023-02-06T04:52:59.433Z,14.47
2023-02-06T04:57:51.620Z,11.40
2023-02-06T05:02:43.610Z,19.83
2023-02-06T05:07:37.093Z,14.87
2023-02-06T05:12:30.348Z,18.27
2023-02-06T05:17:22.338Z,13.00
2023-02-06T05:22:14.364Z,21.10
2023-02-06T05:27:07.722Z,18.30
2023-02-06T05:31:59.764Z,15.33
2023-02-06T05:36:51.773Z,14.33
2023-02-06T05:41:43.766Z,12.03
2023-02-06T05:46:35.802Z,17.10
2023-02-06T05:51:27.792Z,13.37
2023-02-06T05:56:19.746Z,14.33
2023-02-06T06:01:13.091Z,14.73
2023-02-06T06:06:05.975Z,16.20
2023-02-06T06:10:58.145Z,14.50
2023-02-06T06:15:51.852Z,13.83
2023-02-06T06:20:45.170Z,15.60
2023-02-06T06:25:37.591Z,14.43
2023-02-06T06:30:29.820Z,14.17
2023-02-06T06:35:21.947Z,20.87
2023-02-06T06:40:14.050Z,13.47
2023-02-06T06:45:06.493Z,16.17
2023-02-06T06:49:58.421Z,17.47
2023-02-06T06:54:51.991Z,13.83
2023-02-06T06:59:44.349Z,17.67
2023-02-06T07:04:37.563Z,14.37
2023-02-06T07:09:29.603Z,15.67
2023-02-06T07:14:21.677Z,18.13
2023-02-06T07:19:15.643Z,15.10
2023-02-06T07:24:07.841Z,12.43
2023-02-06T07:28:59.824Z,14.67
2023-02-06T07:33:52.039Z,14.00
2023-02-06T07:38:44.257Z,17.83
2023-02-06T07:43:36.456Z,16.20
2023-02-06T07:48:29.304Z,22.30
2023-02-06T07:53:21.365Z,17.00
2023-02-06T07:58:13.779Z,19.97
2023-02-06T08:03:06.667Z,16.13
2023-02-06T08:07:58.870Z,16.20
2023-02-06T08:12:51.041Z,18.30
2023-02-06T08:17:43.597Z,18.07
2023-02-06T08:22:35.743Z,17.07
2023-02-06T08:27:28.140Z,17.47
2023-02-06T08:32:20.119Z,18.73
2023-02-06T08:37:12.328Z,20.80
2023-02-06T08:42:05.702Z,20.13
2023-02-06T08:47:09.207Z,19.23
2023-02-06T08:52:02.358Z,22.73
2023-02-06T08:56:56.915Z,17.70
2023-02-06T09:01:49.558Z,18.43
2023-02-06T09:06:44.201Z,19.93
2023-02-06T09:11:37.989Z,20.10
2023-02-06T09:16:33.303Z,18.93
2023-02-06T09:21:26.360Z,21.77
2023-02-06T09:26:20.980Z,23.33
2023-02-06T09:31:13.475Z,17.57
2023-02-06T09:36:11.680Z,22.07
2023-02-06T09:41:06.445Z,20.50
2023-02-06T09:46:02.614Z,17.67
2023-02-06T09:51:25.136Z,22.23
2023-02-06T09:56:53.625Z,20.17
2023-02-06T10:02:20.752Z,20.50
2023-02-06T10:07:39.952Z,22.40
2023-02-06T10:12:40.873Z,19.17
2023-02-06T10:17:46.314Z,22.87
2023-02-06T10:22:48.288Z,20.23
2023-02-06T10:27:43.944Z,17.33
2023-02-06T10:33:01.538Z,20.93
2023-02-06T10:38:05.857Z,18.00
2023-02-06T10:43:06.684Z,18.47
2023-02-06T10:48:24.389Z,20.30
2023-02-06T10:53:36.193Z,21.67
2023-02-06T10:58:37.112Z,24.87
2023-02-06T11:03:31.971Z,22.23
2023-02-06T11:08:40.474Z,21.87
2023-02-06T11:13:36.954Z,22.50
2023-02-06T11:18:46.399Z,27.73
2023-02-06T11:23:38.891Z,24.70
2023-02-06T11:28:34.094Z,18.97
2023-02-06T11:33:52.949Z,21.37
2023-02-06T11:39:02.090Z,21.00
2023-02-06T11:44:06.598Z,24.90
2023-02-06T11:49:03.974Z,21.17
2023-02-06T11:53:59.957Z,19.13
2023-02-06T11:59:07.386Z,21.47
2023-02-06T12:04:00.407Z,17.43
2023-02-06T12:08:55.294Z,21.00
2023-02-06T12:13:52.387Z,18.50
2023-02-06T12:18:48.435Z,16.83
2023-02-06T12:23:43.104Z,16.63
2023-02-06T12:28:57.404Z,16.53
2023-02-06T12:33:56.023Z,16.87
2023-02-06T12:39:02.312Z,20.07
2023-02-06T12:44:04.259Z,20.53
2023-02-06T12:49:07.941Z,17.27
2023-02-06T12:54:26.295Z,18.77
2023-02-06T12:59:55.633Z,23.87
2023-02-06T13:04:51.267Z,18.27
2023-02-06T13:10:06.137Z,17.67
2023-02-06T13:15:01.015Z,20.00
2023-02-06T13:20:04.998Z,20.63
2023-02-06T13:24:58.393Z,19.30
2023-02-06T13:29:53.851Z,21.23
2023-02-06T13:34:49.190Z,19.37
2023-02-06T13:39:46.356Z,20.40
2023-02-06T13:44:39.288Z,20.07
2023-02-06T13:49:31.509Z,18.33
2023-02-06T13:54:45.191Z,16.73
2023-02-06T13:59:43.089Z,20.90
2023-02-06T14:04:35.266Z,21.73
2023-02-06T14:09:51.879Z,20.20
2023-02-06T14:14:50.331Z,21.40
2023-02-06T14:19:48.377Z,20.37
2023-02-06T14:25:06.638Z,20.53
2023-02-06T14:30:32.466Z,22.63
2023-02-06T14:35:41.876Z,18.10
2023-02-06T14:40:39.106Z,12.10
2023-02-06T14:45:42.695Z,6.80
2023-02-06T14:50:40.469Z,6.80
2023-02-06T14:55:36.653Z,4.97
2023-02-06T15:00:29.881Z,8.57
2023-02-06T15:05:26.228Z,10.37
2023-02-06T15:10:28.837Z,25.97
2023-02-06T15:15:24.571Z,10.50
2023-02-06T15:20:30.949Z,7.07
2023-02-06T15:25:36.076Z,10.33
2023-02-06T15:30:28.402Z,7.13
2023-02-06T15:35:32.241Z,7.43
2023-02-06T15:40:57.987Z,8.57
2023-02-06T15:45:52.466Z,7.63
2023-02-06T15:51:15.958Z,7.03
2023-02-06T15:56:17.105Z,18.00
2023-02-06T16:01:18.574Z,14.83
2023-02-06T16:06:15.528Z,11.67
2023-02-06T16:11:30.921Z,13.03
2023-02-06T16:16:25.679Z,11.43
2023-02-06T16:21:17.613Z,21.83
2023-02-06T16:26:17.287Z,14.03
2023-02-06T16:31:15.191Z,16.00
2023-02-06T16:36:14.006Z,13.33
2023-02-06T16:41:30.397Z,12.60
2023-02-06T16:46:22.937Z,14.93
2023-02-06T16:51:24.660Z,104.40
2023-02-06T16:56:17.952Z,43.87
2023-02-06T17:01:22.187Z,42.10
2023-02-06T17:06:23.413Z,47.83
2023-02-06T17:11:15.464Z,32.30
2023-02-06T17:16:09.844Z,18.00
2023-02-06T17:21:01.894Z,15.07
2023-02-06T17:25:53.863Z,23.57
2023-02-06T17:30:46.433Z,27.27
2023-02-06T17:35:38.666Z,16.20
2023-02-06T17:40:32.938Z,16.80
2023-02-06T17:45:26.086Z,20.03
2023-02-06T17:50:23.640Z,19.57
2023-02-06T17:55:15.860Z,52.00
2023-02-06T18:00:12.640Z,21.00
2023-02-06T18:05:05.809Z,26.93
2023-02-06T18:09:57.957Z,28.60
2023-02-06T18:14:50.424Z,35.67
2023-02-06T18:19:44.142Z,25.93
2023-02-06T18:24:36.239Z,21.90
2023-02-06T18:29:34.638Z,22.27
2023-02-06T18:34:35.989Z,19.97
2023-02-06T18:39:28.231Z,48.13
2023-02-06T18:44:20.304Z,52.77
2023-02-06T18:49:12.322Z,40.47
2023-02-06T18:54:04.831Z,24.50
2023-02-06T18:58:56.995Z,84.23
2023-02-06T19:03:50.790Z,43.57
2023-02-06T19:08:45.645Z,22.33
2023-02-06T19:13:40.635Z,27.27
2023-02-06T19:18:38.831Z,38.03
2023-02-06T19:23:34.902Z,40.87
2023-02-06T19:28:26.867Z,62.37
2023-02-06T19:33:19.456Z,52.97
2023-02-06T19:38:11.593Z,47.97
2023-02-06T19:43:03.652Z,45.87
2023-02-06T19:47:57.113Z,25.90
2023-02-06T19:52:49.166Z,22.03
2023-02-06T19:57:41.265Z,25.47
2023-02-06T20:02:33.258Z,21.83
2023-02-06T20:07:25.299Z,24.43
2023-02-06T20:12:18.421Z,23.03
2023-02-06T20:17:10.513Z,42.00
2023-02-06T20:22:04.371Z,30.83
2023-02-06T20:26:59.767Z,18.40
2023-02-06T20:31:52.504Z,20.83
2023-02-06T20:36:45.432Z,22.10
2023-02-06T20:41:37.478Z,20.90
2023-02-06T20:46:32.730Z,21.00
2023-02-06T20:51:25.187Z,61.87
2023-02-06T20:56:18.110Z,62.03
2023-02-06T21:01:28.181Z,34.63
2023-02-06T21:06:21.053Z,41.23
2023-02-06T21:11:13.259Z,33.27
2023-02-06T21:16:05.642Z,24.57
2023-02-06T21:21:06.910Z,25.47
2023-02-06T21:25:58.841Z,26.77
2023-02-06T21:31:00.563Z,24.70
2023-02-06T21:35:53.237Z,33.87
2023-02-06T21:40:45.875Z,57.73
2023-02-06T21:45:39.634Z,51.70
2023-02-06T21:50:31.898Z,29.10
2023-02-06T21:55:25.304Z,26.87
2023-02-06T22:00:17.486Z,67.83
2023-02-06T22:05:10.309Z,165.07
2023-02-06T22:10:07.358Z,200.53
2023-02-06T22:14:59.337Z,70.87
2023-02-06T22:19:53.851Z,43.67
2023-02-06T22:24:46.246Z,36.50
2023-02-06T22:29:38.247Z,30.83
2023-02-06T22:34:31.609Z,38.77
2023-02-06T22:39:24.096Z,35.63
2023-02-06T22:44:18.231Z,32.33
2023-02-06T22:49:10.586Z,39.27
2023-02-06T22:54:03.380Z,54.47
2023-02-06T22:59:16.912Z,80.17
2023-02-06T23:04:13.856Z,48.47
2023-02-06T23:09:08.075Z,26.17
2023-02-06T23:14:02.457Z,32.33
2023-02-06T23:18:55.231Z,27.57
2023-02-06T23:23:47.517Z,27.80
2023-02-06T23:28:40.047Z,29.47
2023-02-06T23:33:32.533Z,34.33
2023-02-06T23:38:24.463Z,31.63
2023-02-06T23:43:16.618Z,40.50
2023-02-06T23:48:08.824Z,33.37
2023-02-06T23:53:00.823Z,27.47
2023-02-06T23:57:53.507Z,30.00
